createdAt,value
2022-09-21T00:01:08.899Z,3.50
2022-09-21T00:03:36.958Z,3.08
2022-09-21T00:06:09.557Z,2.80
2022-09-21T00:08:36.686Z,2.95
2022-09-21T00:11:05.571Z,2.40
2022-09-21T00:13:34.418Z,2.92
2022-09-21T00:16:01.534Z,2.08
2022-09-21T00:18:28.561Z,2.50
2022-09-21T00:20:55.441Z,2.55
2022-09-21T00:23:22.708Z,2.10
2022-09-21T00:25:50.285Z,2.40
2022-09-21T00:28:17.121Z,2.80
2022-09-21T00:30:43.887Z,2.25
2022-09-21T00:33:10.566Z,2.55
2022-09-21T00:35:38.558Z,2.35
2022-09-21T00:38:05.359Z,2.75
2022-09-21T00:40:32.384Z,2.47
2022-09-21T00:43:13.453Z,2.60
2022-09-21T00:45:40.537Z,2.80
2022-09-21T00:48:07.609Z,2.60
2022-09-21T00:50:35.772Z,2.65
2022-09-21T00:53:04.748Z,2.67
2022-09-21T00:55:37.804Z,1.98
2022-09-21T00:58:13.012Z,2.47
2022-09-21T01:00:40.521Z,2.50
2022-09-21T01:03:09.377Z,2.17
2022-09-21T01:05:36.164Z,2.35
2022-09-21T01:08:06.525Z,2.30
2022-09-21T01:11:01.938Z,2.17
2022-09-21T01:13:53.467Z,2.38
2022-09-21T01:16:35.031Z,1.90
2022-09-21T01:19:35.216Z,2.25
2022-09-21T01:22:15.669Z,2.00
2022-09-21T01:25:00.408Z,2.35
2022-09-21T01:27:33.002Z,1.90
2022-09-21T01:30:12.096Z,2.00
2022-09-21T01:32:43.704Z,2.10
2022-09-21T01:35:20.160Z,2.20
2022-09-21T01:37:57.017Z,1.92
2022-09-21T01:40:39.813Z,1.42
2022-09-21T01:43:09.509Z,1.52
2022-09-21T01:45:40.902Z,2.00
2022-09-21T01:48:08.837Z,1.90
2022-09-21T01:50:44.355Z,1.88
2022-09-21T01:53:23.609Z,1.73
2022-09-21T01:55:55.377Z,1.60
2022-09-21T01:58:55.200Z,1.88
2022-09-21T02:01:27.435Z,2.45
2022-09-21T02:04:01.962Z,1.90
2022-09-21T02:06:30.240Z,1.50
2022-09-21T02:08:58.095Z,1.50
2022-09-21T02:11:25.020Z,1.50
2022-09-21T02:13:55.041Z,2.20
2022-09-21T02:16:35.202Z,1.65
2022-09-21T02:19:10.805Z,1.40
2022-09-21T02:21:37.479Z,1.45
2022-09-21T02:24:29.568Z,1.63
2022-09-21T02:27:48.463Z,1.58
2022-09-21T02:30:24.910Z,1.63
2022-09-21T02:33:02.040Z,1.83
2022-09-21T02:35:46.877Z,1.40
2022-09-21T02:38:32.992Z,1.33
2022-09-21T02:41:17.781Z,1.40
2022-09-21T02:44:04.768Z,1.75
2022-09-21T02:46:40.751Z,1.90
2022-09-21T02:49:18.347Z,1.65
2022-09-21T02:51:52.626Z,1.50
2022-09-21T02:54:25.091Z,1.80
2022-09-21T02:56:54.069Z,1.60
2022-09-21T02:59:23.636Z,1.20
2022-09-21T03:01:51.902Z,1.80
2022-09-21T03:04:18.747Z,1.58
2022-09-21T03:06:45.879Z,1.02
2022-09-21T03:09:13.035Z,1.35
2022-09-21T03:11:42.331Z,1.98
2022-09-21T03:14:09.370Z,1.30
2022-09-21T03:16:37.077Z,1.15
2022-09-21T03:19:04.516Z,1.15
2022-09-21T03:21:31.931Z,1.10
2022-09-21T03:23:58.649Z,1.02
2022-09-21T03:26:25.353Z,1.00
2022-09-21T03:28:54.731Z,1.02
2022-09-21T03:31:22.540Z,1.23
2022-09-21T03:33:49.825Z,1.10
2022-09-21T03:36:16.897Z,1.27
2022-09-21T03:38:44.291Z,0.93
2022-09-21T03:41:11.391Z,0.90
2022-09-21T03:43:38.075Z,1.17
2022-09-21T03:46:05.021Z,1.00
2022-09-21T03:48:32.708Z,1.00
2022-09-21T03:50:59.467Z,0.82
2022-09-21T03:53:26.223Z,0.73
2022-09-21T03:55:52.953Z,0.70
2022-09-21T03:58:20.204Z,0.80
2022-09-21T04:00:46.908Z,0.60
2022-09-21T04:03:13.603Z,0.77
2022-09-21T04:05:40.381Z,1.30
2022-09-21T04:08:08.196Z,1.35
2022-09-21T04:10:35.352Z,1.10
2022-09-21T04:13:04.366Z,1.35
2022-09-21T04:15:31.872Z,2.30
2022-09-21T04:17:59.414Z,1.73
2022-09-21T04:20:27.110Z,1.48
2022-09-21T04:22:53.863Z,1.30
2022-09-21T04:25:21.030Z,1.20
2022-09-21T04:27:48.139Z,1.10
2022-09-21T04:30:16.561Z,1.30
2022-09-21T04:32:44.414Z,1.00
2022-09-21T04:35:11.221Z,1.27
2022-09-21T04:37:38.002Z,1.70
2022-09-21T04:40:05.767Z,1.13
2022-09-21T04:42:32.619Z,1.30
2022-09-21T04:44:59.335Z,1.08
2022-09-21T04:47:26.067Z,1.23
2022-09-21T04:49:53.535Z,1.13
2022-09-21T04:52:20.712Z,1.55
2022-09-21T04:54:48.201Z,1.50
2022-09-21T04:57:15.556Z,0.95
2022-09-21T04:59:42.307Z,1.02
2022-09-21T05:02:09.160Z,1.50
2022-09-21T05:04:35.969Z,1.65
2022-09-21T05:07:03.044Z,1.58
2022-09-21T05:09:48.162Z,1.42
2022-09-21T05:12:14.906Z,1.80
2022-09-21T05:14:44.005Z,1.63
2022-09-21T05:17:12.011Z,1.70
2022-09-21T05:19:38.949Z,1.48
2022-09-21T05:22:06.059Z,1.67
2022-09-21T05:24:33.306Z,1.73
2022-09-21T05:27:00.754Z,1.48
2022-09-21T05:29:27.767Z,2.00
2022-09-21T05:32:01.987Z,2.90
2022-09-21T05:34:55.779Z,2.03
2022-09-21T05:37:47.069Z,2.00
2022-09-21T05:40:14.678Z,2.03
2022-09-21T05:42:41.839Z,1.65
2022-09-21T05:45:15.241Z,2.10
2022-09-21T05:47:45.405Z,2.08
2022-09-21T05:50:35.571Z,1.63
2022-09-21T05:53:31.398Z,2.08
2022-09-21T05:56:12.296Z,5.85
2022-09-21T05:59:03.703Z,4.38
2022-09-21T06:01:48.988Z,3.00
2022-09-21T06:04:17.090Z,2.13
2022-09-21T06:06:44.322Z,3.20
2022-09-21T06:09:11.934Z,3.28
2022-09-21T06:11:38.760Z,3.20
2022-09-21T06:14:05.820Z,3.20
2022-09-21T06:16:40.966Z,3.20
2022-09-21T06:19:11.927Z,3.67
2022-09-21T06:21:38.725Z,1.10
2022-09-21T06:24:05.552Z,1.13
2022-09-21T06:26:33.991Z,1.05
2022-09-21T06:29:00.925Z,1.27
2022-09-21T06:31:28.318Z,1.00
2022-09-21T06:33:55.244Z,0.80
2022-09-21T06:36:22.270Z,0.70
2022-09-21T06:38:48.974Z,0.45
2022-09-21T06:41:20.770Z,0.70
2022-09-21T06:43:47.897Z,0.75
2022-09-21T06:46:15.171Z,0.63
2022-09-21T06:48:42.141Z,0.50
2022-09-21T06:51:10.366Z,0.65
2022-09-21T06:53:37.238Z,0.70
2022-09-21T06:56:09.009Z,0.93
2022-09-21T06:58:37.692Z,0.95
2022-09-21T07:01:10.346Z,1.00
2022-09-21T07:03:39.601Z,1.10
2022-09-21T07:06:08.897Z,0.80
2022-09-21T07:11:24.114Z,0.70
2022-09-21T07:13:52.845Z,0.80
2022-09-21T07:16:20.086Z,0.60
2022-09-21T07:18:47.314Z,0.80
2022-09-21T07:21:14.909Z,0.60
2022-09-21T07:23:42.073Z,0.63
2022-09-21T07:26:12.095Z,0.80
2022-09-21T07:28:39.796Z,0.98
2022-09-21T07:34:06.413Z,1.15
2022-09-21T07:36:33.253Z,2.53
2022-09-21T07:39:00.488Z,1.92
2022-09-21T07:41:27.337Z,1.10
2022-09-21T07:43:54.381Z,0.70
2022-09-21T07:46:21.222Z,0.65
2022-09-21T07:48:47.949Z,0.60
2022-09-21T07:51:15.817Z,0.93
2022-09-21T07:53:47.029Z,0.65
2022-09-21T07:56:16.928Z,0.55
2022-09-21T08:02:02.558Z,1.00
2022-09-21T08:04:30.465Z,1.00
2022-09-21T08:06:58.034Z,0.70
2022-09-21T08:09:25.400Z,0.75
2022-09-21T08:14:41.029Z,0.85
2022-09-21T08:17:11.305Z,1.00
2022-09-21T08:19:38.140Z,1.00
2022-09-21T08:22:05.015Z,1.00
2022-09-21T08:24:33.243Z,0.75
2022-09-21T08:27:00.678Z,1.05
2022-09-21T08:45:49.100Z,0.82
2022-09-21T08:48:33.118Z,0.70
2022-09-21T08:51:06.331Z,0.77
2022-09-21T08:53:36.558Z,0.68
2022-09-21T08:56:03.710Z,0.68
2022-09-21T08:58:32.634Z,1.00
2022-09-21T09:01:30.854Z,1.02
2022-09-21T09:04:11.748Z,0.63
2022-09-21T09:06:51.253Z,0.68
2022-09-21T09:12:25.731Z,1.20
2022-09-21T09:18:09.325Z,1.27
2022-09-21T09:21:10.570Z,1.25
2022-09-21T09:23:44.832Z,1.05
2022-09-21T09:26:20.639Z,0.60
2022-09-21T09:29:03.527Z,0.60
2022-09-21T09:31:35.904Z,0.75
2022-09-21T09:34:14.741Z,0.60
2022-09-21T09:37:01.027Z,0.60
2022-09-21T09:39:31.624Z,0.57
2022-09-21T09:42:17.302Z,0.90
2022-09-21T09:45:02.408Z,0.90
2022-09-21T09:47:32.278Z,0.98
2022-09-21T09:50:05.874Z,0.80
2022-09-21T09:52:34.510Z,1.00
2022-09-21T09:55:14.540Z,1.08
2022-09-21T09:57:41.809Z,0.60
2022-09-21T10:00:13.543Z,0.70
2022-09-21T10:05:41.261Z,1.23
2022-09-21T10:11:25.868Z,0.45
2022-09-21T10:13:57.042Z,0.75
2022-09-21T10:19:29.795Z,0.73
2022-09-21T10:21:59.211Z,0.45
2022-09-21T10:24:30.069Z,0.45
2022-09-21T10:29:49.556Z,0.47
2022-09-21T10:32:16.374Z,0.60
2022-09-21T10:37:37.395Z,0.75
2022-09-21T10:40:22.359Z,0.50
2022-09-21T10:42:51.761Z,1.00
2022-09-21T10:45:20.278Z,0.45
2022-09-21T10:47:55.479Z,0.68
2022-09-21T10:50:37.076Z,0.60
2022-09-21T10:53:10.624Z,0.60
2022-09-21T10:55:52.685Z,0.70
2022-09-21T10:58:26.088Z,0.70
2022-09-21T11:00:55.572Z,0.57
2022-09-21T11:03:35.739Z,0.80
2022-09-21T11:06:11.690Z,0.57
2022-09-21T11:08:56.373Z,0.65
2022-09-21T11:11:50.336Z,0.60
2022-09-21T11:17:23.084Z,0.65
2022-09-21T11:20:05.652Z,0.85
2022-09-21T11:22:57.242Z,0.90
2022-09-21T11:25:39.090Z,1.20
2022-09-21T11:28:31.996Z,1.40
2022-09-21T11:33:57.764Z,1.88
2022-09-21T11:40:03.333Z,0.93
2022-09-21T11:45:46.088Z,0.90
2022-09-21T11:48:37.781Z,0.90
2022-09-21T11:51:28.615Z,0.73
2022-09-21T11:57:04.860Z,1.25
2022-09-21T11:59:45.048Z,0.65
2022-09-21T12:02:52.048Z,0.60
2022-09-21T12:05:48.141Z,0.50
2022-09-21T12:08:33.737Z,0.60
2022-09-21T12:11:19.781Z,0.65
2022-09-21T12:13:51.873Z,0.70
2022-09-21T12:16:30.504Z,0.40
2022-09-21T12:19:04.621Z,0.80
2022-09-21T12:21:36.736Z,0.80
2022-09-21T12:24:31.239Z,0.90
2022-09-21T12:27:04.587Z,0.63
2022-09-21T12:29:47.789Z,0.80
2022-09-21T12:32:27.382Z,0.65
2022-09-21T12:35:02.302Z,0.90
2022-09-21T12:37:41.486Z,0.73
2022-09-21T12:40:16.308Z,0.60
2022-09-21T12:42:56.716Z,0.82
2022-09-21T12:45:38.554Z,0.50
2022-09-21T12:48:23.834Z,0.60
2022-09-21T12:50:57.514Z,0.50
2022-09-21T12:53:27.409Z,1.10
2022-09-21T12:56:03.019Z,1.13
2022-09-21T12:58:49.438Z,0.60
2022-09-21T13:01:43.887Z,0.75
2022-09-21T13:04:35.507Z,0.68
2022-09-21T13:07:11.638Z,0.63
2022-09-21T13:09:42.812Z,1.13
2022-09-21T13:14:52.368Z,1.38
2022-09-21T13:17:30.589Z,0.80
2022-09-21T13:20:17.229Z,0.90
2022-09-21T13:22:45.821Z,0.75
2022-09-21T13:25:22.633Z,0.75
2022-09-21T13:28:17.244Z,0.95
2022-09-21T13:30:49.244Z,0.90
2022-09-21T13:35:59.546Z,1.55
2022-09-21T13:38:41.531Z,1.33
2022-09-21T13:41:22.068Z,1.15
2022-09-21T13:44:04.207Z,0.98
2022-09-21T13:46:36.462Z,1.10
2022-09-21T13:49:16.107Z,1.00
2022-09-21T13:55:04.613Z,0.80
2022-09-21T13:57:34.986Z,1.38
2022-09-21T14:00:14.667Z,1.10
2022-09-21T14:02:51.035Z,0.93
2022-09-21T14:05:33.140Z,1.17
2022-09-21T14:08:18.840Z,1.35
2022-09-21T14:10:55.604Z,2.22
2022-09-21T14:13:41.607Z,1.65
2022-09-21T14:16:47.567Z,1.10
2022-09-21T14:19:17.747Z,1.40
2022-09-21T14:21:51.247Z,1.05
2022-09-21T14:24:51.251Z,0.90
2022-09-21T14:27:34.493Z,0.98
2022-09-21T14:30:22.276Z,0.60
2022-09-21T14:35:48.129Z,1.10
2022-09-21T14:38:22.709Z,1.30
2022-09-21T14:40:52.394Z,1.70
2022-09-21T14:43:35.194Z,1.10
2022-09-21T14:46:10.528Z,0.80
2022-09-21T14:48:50.145Z,0.82
2022-09-21T14:51:55.678Z,0.80
2022-09-21T14:54:40.462Z,0.60
2022-09-21T15:00:28.778Z,0.70
2022-09-21T15:03:09.879Z,1.20
2022-09-21T15:05:42.427Z,0.60
2022-09-21T15:09:06.142Z,0.80
2022-09-21T15:11:59.382Z,0.77
2022-09-21T15:14:45.090Z,0.40
2022-09-21T15:17:31.754Z,0.60
2022-09-21T15:20:16.380Z,1.02
2022-09-21T15:22:44.275Z,1.65
2022-09-21T15:25:13.948Z,0.90
2022-09-21T15:27:46.826Z,0.80
2022-09-21T15:30:33.314Z,1.42
2022-09-21T15:33:03.498Z,0.90
2022-09-21T15:35:32.676Z,0.52
2022-09-21T15:38:01.249Z,0.50
2022-09-21T15:40:34.604Z,1.20
2022-09-21T15:43:19.134Z,1.23
2022-09-21T15:48:42.241Z,1.17
2022-09-21T15:51:09.138Z,0.82
2022-09-21T15:53:44.620Z,2.38
2022-09-21T15:56:25.760Z,2.50
2022-09-21T15:59:08.702Z,3.00
2022-09-21T16:01:42.832Z,4.00
2022-09-21T16:04:22.027Z,2.70
2022-09-21T16:12:43.067Z,2.60
2022-09-21T16:15:28.256Z,2.10
2022-09-21T16:20:44.443Z,10.60
2022-09-21T16:23:22.164Z,3.55
2022-09-21T16:26:01.322Z,2.53
2022-09-21T16:28:35.367Z,2.80
2022-09-21T16:31:23.548Z,2.30
2022-09-21T16:33:50.284Z,2.50
2022-09-21T16:36:20.589Z,2.08
2022-09-21T16:38:51.046Z,2.35
2022-09-21T16:44:22.712Z,1.55
2022-09-21T16:47:01.364Z,2.00
2022-09-21T16:49:47.064Z,1.77
2022-09-21T16:54:52.489Z,1.70
2022-09-21T16:57:19.679Z,1.55
2022-09-21T16:59:48.014Z,1.90
2022-09-21T17:02:15.666Z,2.25
2022-09-21T17:04:43.024Z,2.47
2022-09-21T17:07:14.313Z,2.80
2022-09-21T17:09:44.440Z,2.33
2022-09-21T17:12:13.653Z,3.90
2022-09-21T17:14:46.729Z,4.40
2022-09-21T17:17:25.072Z,2.70
2022-09-21T17:19:54.415Z,2.25
2022-09-21T17:24:52.762Z,2.70
2022-09-21T17:27:22.586Z,2.58
2022-09-21T17:29:50.350Z,3.20
2022-09-21T17:32:22.273Z,3.38
2022-09-21T17:35:34.207Z,2.88
2022-09-21T17:38:01.347Z,3.33
2022-09-21T17:40:29.901Z,2.63
2022-09-21T17:43:12.093Z,3.53
2022-09-21T17:46:08.850Z,6.90
2022-09-21T17:48:39.447Z,7.90
2022-09-21T17:51:06.719Z,6.75
2022-09-21T17:53:35.121Z,7.60
2022-09-21T17:56:14.535Z,7.18
2022-09-21T17:58:57.894Z,6.00
2022-09-21T18:01:36.489Z,7.03
2022-09-21T18:04:05.075Z,6.30
2022-09-21T18:06:32.789Z,7.57
2022-09-21T18:08:59.975Z,6.90
2022-09-21T18:11:55.535Z,8.52
2022-09-21T18:17:13.045Z,7.07
2022-09-21T18:19:45.882Z,6.10
2022-09-21T18:22:23.565Z,5.90
2022-09-21T18:24:52.276Z,7.10
2022-09-21T18:27:20.055Z,7.15
2022-09-21T18:29:47.309Z,7.80
2022-09-21T18:32:29.225Z,6.78
2022-09-21T18:35:31.544Z,7.20
2022-09-21T18:38:23.339Z,7.50
2022-09-21T18:40:58.078Z,7.22
2022-09-21T18:43:35.464Z,5.38
2022-09-21T18:46:05.770Z,4.78
2022-09-21T18:48:51.930Z,3.40
2022-09-21T18:51:25.294Z,2.90
2022-09-21T18:53:56.073Z,2.90
2022-09-21T18:56:29.320Z,2.97
2022-09-21T18:58:58.144Z,2.53
2022-09-21T19:01:29.320Z,3.33
2022-09-21T19:07:16.469Z,3.10
2022-09-21T19:10:10.331Z,3.05
2022-09-21T19:13:00.038Z,3.45
2022-09-21T19:16:00.914Z,5.30
2022-09-21T19:21:20.388Z,4.47
2022-09-21T19:27:34.277Z,4.30
2022-09-21T19:32:56.731Z,4.18
2022-09-21T19:35:31.924Z,4.75
2022-09-21T19:38:06.196Z,4.10
2022-09-21T19:40:37.354Z,3.53
2022-09-21T19:48:48.611Z,3.45
2022-09-21T19:51:22.767Z,4.18
2022-09-21T19:54:13.874Z,3.50
2022-09-21T19:57:05.920Z,3.55
2022-09-21T19:59:44.888Z,4.40
2022-09-21T20:02:32.516Z,3.20
2022-09-21T20:08:00.420Z,4.60
2022-09-21T20:10:42.203Z,4.07
2022-09-21T20:21:51.307Z,5.68
2022-09-21T20:24:46.417Z,6.35
2022-09-21T20:27:50.881Z,6.95
2022-09-21T20:30:22.343Z,4.78
2022-09-21T20:32:53.318Z,4.88
2022-09-21T20:40:42.905Z,5.78
2022-09-21T20:43:10.014Z,5.72
2022-09-21T20:45:37.271Z,3.75
2022-09-21T20:48:13.545Z,4.28
2022-09-21T20:50:46.471Z,5.45
2022-09-21T20:53:20.147Z,4.55
2022-09-21T20:55:57.683Z,4.65
2022-09-21T20:58:24.887Z,4.15
2022-09-21T21:00:56.424Z,4.43
2022-09-21T21:03:25.485Z,5.00
2022-09-21T21:08:41.190Z,4.97
2022-09-21T21:11:08.287Z,5.18
2022-09-21T21:13:35.367Z,4.25
2022-09-21T21:16:08.159Z,5.15
2022-09-21T21:18:42.156Z,3.88
2022-09-21T21:21:09.504Z,5.18
2022-09-21T21:23:54.827Z,4.40
2022-09-21T21:26:33.311Z,4.18
2022-09-21T21:29:09.176Z,4.55
2022-09-21T21:31:36.271Z,4.57
2022-09-21T21:34:03.189Z,3.55
2022-09-21T21:36:30.354Z,4.85
2022-09-21T21:38:58.115Z,4.90
2022-09-21T21:41:24.967Z,4.47
2022-09-21T21:43:55.501Z,3.65
2022-09-21T21:46:22.673Z,4.88
2022-09-21T21:48:49.911Z,3.85
2022-09-21T21:51:17.297Z,4.55
2022-09-21T21:53:45.090Z,4.05
2022-09-21T21:56:16.495Z,3.88
2022-09-21T21:58:43.508Z,4.60
2022-09-21T22:01:13.714Z,3.45
2022-09-21T22:03:41.468Z,4.60
2022-09-21T22:06:10.010Z,4.20
2022-09-21T22:08:39.607Z,3.88
2022-09-21T22:11:07.921Z,4.10
2022-09-21T22:13:37.688Z,4.13
2022-09-21T22:16:10.460Z,4.70
2022-09-21T22:18:37.977Z,4.90
2022-09-21T22:21:11.436Z,4.60
2022-09-21T22:23:39.228Z,4.20
2022-09-21T22:26:16.661Z,4.18
2022-09-21T22:28:46.026Z,4.07
2022-09-21T22:31:18.775Z,3.90
2022-09-21T22:33:45.859Z,2.47
2022-09-21T22:36:20.829Z,2.83
2022-09-21T22:38:47.754Z,3.47
2022-09-21T22:41:20.704Z,2.95
2022-09-21T22:43:49.061Z,3.15
2022-09-21T22:46:16.741Z,2.60
2022-09-21T22:48:44.865Z,2.50
2022-09-21T22:51:12.770Z,1.90
2022-09-21T22:53:39.870Z,2.13
2022-09-21T22:56:09.103Z,2.40
2022-09-21T22:58:47.534Z,2.25
2022-09-21T23:01:20.296Z,2.47
2022-09-21T23:03:49.240Z,1.90
2022-09-21T23:06:19.052Z,1.90
2022-09-21T23:08:50.724Z,2.10
2022-09-21T23:11:48.677Z,2.53
2022-09-21T23:14:16.861Z,2.20
2022-09-21T23:16:43.835Z,2.63
2022-09-21T23:19:15.701Z,2.38
2022-09-21T23:21:45.314Z,2.15
2022-09-21T23:24:12.956Z,1.95
2022-09-21T23:26:40.071Z,3.03
2022-09-21T23:29:12.487Z,2.38
2022-09-21T23:31:44.348Z,2.60
2022-09-21T23:34:12.842Z,2.78
2022-09-21T23:36:41.103Z,2.33
2022-09-21T23:39:11.565Z,2.22
2022-09-21T23:41:39.100Z,2.72
2022-09-21T23:44:06.135Z,2.10
2022-09-21T23:46:36.215Z,2.40
2022-09-21T23:49:03.723Z,2.50
2022-09-21T23:51:31.102Z,2.20
2022-09-21T23:53:58.810Z,2.22
2022-09-21T23:56:27.046Z,1.50
2022-09-21T23:58:54.663Z,1.75
